Time;durP1;ratioP1;P1;durP2;ratioP2;P2;SDS_P1;SDS_P2;PMS_P1;PMS_P2;Temp;Humidity;BMP_temperature;BMP_pressure;BME280_temperature;BME280_humidity;BME280_pressure;Samples;Min_cycle;Max_cycle;Signal;HPM_P1;HPM_P2
2022/01/26 00:06:47;;;;;;;1.83;1.70;;;;;;;;;;5097160;28;20206;-64
2022/01/26 00:09:15;;;;;;;2.00;1.80;;;;;;;;;;5118831;28;20287;-63
2022/01/26 00:11:43;;;;;;;2.10;1.90;;;;;;;;;;5118022;28;20199;-63
2022/01/26 00:14:12;;;;;;;1.80;1.70;;;;;;;;;;5118520;28;20203;-63
2022/01/26 00:16:42;;;;;;;1.92;1.77;;;;;;;;;;5118371;28;20202;-63
2022/01/26 00:19:11;;;;;;;1.60;1.50;;;;;;;;;;5118602;28;20281;-64
2022/01/26 00:21:42;;;;;;;2.10;1.90;;;;;;;;;;5118754;28;20670;-64
2022/01/26 00:24:48;;;;;;;1.77;1.67;;;;;;;;;;5117899;28;20612;-64
2022/01/26 00:27:24;;;;;;;1.52;1.42;;;;;;;;;;5118399;28;20227;-63
2022/01/26 00:31:12;;;;;;;1.90;1.70;;;;;;;;;;5118686;28;20536;-63
2022/01/26 00:38:38;;;;;;;1.70;1.60;;;;;;;;;;5118202;28;20198;-64
2022/01/26 00:41:10;;;;;;;1.65;1.55;;;;;;;;;;5117737;28;20199;-64
2022/01/26 00:43:38;;;;;;;1.70;1.60;;;;;;;;;;5118303;28;20546;-64
2022/01/26 00:46:07;;;;;;;1.40;1.30;;;;;;;;;;5117716;28;20252;-64
2022/01/26 00:48:37;;;;;;;1.60;1.48;;;;;;;;;;5108630;28;20222;-63
2022/01/26 00:51:06;;;;;;;1.60;1.50;;;;;;;;;;5118528;28;20203;-63
2022/01/26 00:53:36;;;;;;;1.63;1.52;;;;;;;;;;5117750;28;20210;-63
2022/01/26 00:56:05;;;;;;;1.77;1.67;;;;;;;;;;5118371;28;20500;-63
2022/01/26 00:58:34;;;;;;;1.70;1.58;;;;;;;;;;5118186;28;20195;-63
2022/01/26 01:01:03;;;;;;;1.83;1.63;;;;;;;;;;5117937;28;20203;-63
2022/01/26 01:03:33;;;;;;;1.42;1.33;;;;;;;;;;5117496;28;20210;-64
2022/01/26 01:06:04;;;;;;;1.70;1.60;;;;;;;;;;5117592;28;20206;-63
2022/01/26 01:08:31;;;;;;;1.58;1.48;;;;;;;;;;5117273;28;20219;-63
2022/01/26 01:10:59;;;;;;;1.60;1.50;;;;;;;;;;5117389;28;20210;-64
2022/01/26 01:13:33;;;;;;;2.00;1.70;;;;;;;;;;5117877;28;20218;-63
2022/01/26 01:16:03;;;;;;;1.60;1.50;;;;;;;;;;5117621;28;20264;-65
2022/01/26 01:18:38;;;;;;;1.58;1.48;;;;;;;;;;5117508;28;20199;-63
2022/01/26 01:21:42;;;;;;;1.98;1.63;;;;;;;;;;5117880;28;20213;-63
2022/01/26 01:24:24;;;;;;;1.50;1.40;;;;;;;;;;5117787;28;20195;-63
2022/01/26 01:29:45;;;;;;;1.70;1.60;;;;;;;;;;5117966;28;20205;-64
2022/01/26 01:32:26;;;;;;;1.80;1.70;;;;;;;;;;5117181;28;20210;-64
2022/01/26 01:34:53;;;;;;;1.70;1.60;;;;;;;;;;5097416;28;20203;-64
2022/01/26 01:37:21;;;;;;;1.88;1.77;;;;;;;;;;5101826;28;20195;-63
2022/01/26 01:39:48;;;;;;;1.67;1.58;;;;;;;;;;5117320;28;20227;-64
2022/01/26 01:42:15;;;;;;;1.70;1.50;;;;;;;;;;5117468;28;20234;-63
2022/01/26 01:44:43;;;;;;;1.77;1.67;;;;;;;;;;5117592;28;20199;-63
2022/01/26 01:47:10;;;;;;;1.70;1.60;;;;;;;;;;5117249;28;20582;-64
2022/01/26 01:49:39;;;;;;;1.63;1.52;;;;;;;;;;5117365;28;20234;-63
2022/01/26 01:52:13;;;;;;;1.63;1.52;;;;;;;;;;5116730;28;20199;-63
2022/01/26 01:54:41;;;;;;;2.35;1.92;;;;;;;;;;5117415;28;20289;-63
2022/01/26 01:57:09;;;;;;;1.92;1.80;;;;;;;;;;5117640;28;20203;-64
2022/01/26 01:59:37;;;;;;;1.60;1.50;;;;;;;;;;5117150;28;20191;-63
2022/01/26 02:02:04;;;;;;;1.80;1.70;;;;;;;;;;5117127;28;20448;-63
2022/01/26 02:04:32;;;;;;;1.73;1.63;;;;;;;;;;5117705;28;20223;-63
2022/01/26 02:07:00;;;;;;;1.70;1.60;;;;;;;;;;5117015;28;20281;-63
2022/01/26 02:09:28;;;;;;;1.63;1.52;;;;;;;;;;5116492;28;20223;-64
2022/01/26 02:11:57;;;;;;;1.90;1.70;;;;;;;;;;5117810;28;20210;-63
2022/01/26 02:14:28;;;;;;;1.67;1.58;;;;;;;;;;5120662;28;20223;-63
2022/01/26 02:17:06;;;;;;;1.92;1.80;;;;;;;;;;5120955;28;20285;-63
2022/01/26 02:55:47;;;;;;;2.10;1.80;;;;;;;;;;5102641;28;20206;-63
2022/01/26 03:01:40;;;;;;;1.77;1.52;;;;;;;;;;5135467;27;20618;-63
2022/01/26 03:04:14;;;;;;;1.83;1.73;;;;;;;;;;5119193;28;20569;-64
2022/01/26 03:06:48;;;;;;;1.70;1.60;;;;;;;;;;5136020;27;20201;-63
2022/01/26 03:09:21;;;;;;;2.13;1.90;;;;;;;;;;5135568;27;20198;-63
2022/01/26 03:11:49;;;;;;;2.22;2.03;;;;;;;;;;5135261;28;20643;-63
2022/01/26 03:14:26;;;;;;;2.10;2.00;;;;;;;;;;5135219;27;20230;-63
2022/01/26 03:16:59;;;;;;;2.25;2.05;;;;;;;;;;5135030;27;20209;-63
2022/01/26 03:19:34;;;;;;;2.17;1.98;;;;;;;;;;5134809;27;20233;-63
2022/01/26 03:30:46;;;;;;;2.47;2.28;;;;;;;;;;5135328;28;20185;-63
2022/01/26 03:33:24;;;;;;;2.10;1.92;;;;;;;;;;5125855;27;20234;-63
2022/01/26 03:35:55;;;;;;;2.35;1.80;;;;;;;;;;5115084;28;20205;-63
2022/01/26 03:38:26;;;;;;;2.47;2.28;;;;;;;;;;5115987;28;20669;-64
2022/01/26 03:41:11;;;;;;;2.50;2.30;;;;;;;;;;5114657;28;20202;-63
2022/01/26 03:43:38;;;;;;;1.90;1.80;;;;;;;;;;5114267;28;20223;-63
2022/01/26 03:46:06;;;;;;;2.17;2.03;;;;;;;;;;5114563;28;20204;-63
2022/01/26 03:48:33;;;;;;;2.53;2.33;;;;;;;;;;5115321;28;20207;-63
2022/01/26 03:51:01;;;;;;;2.15;2.00;;;;;;;;;;5113995;28;20222;-63
2022/01/26 03:53:29;;;;;;;2.15;2.00;;;;;;;;;;5118586;28;20517;-63
2022/01/26 03:55:57;;;;;;;2.35;2.05;;;;;;;;;;5134509;27;20194;-63
2022/01/26 03:58:25;;;;;;;2.40;2.20;;;;;;;;;;5134659;27;20194;-63
2022/01/26 04:00:52;;;;;;;2.40;2.20;;;;;;;;;;5135199;27;20220;-64
2022/01/26 04:03:20;;;;;;;2.50;2.30;;;;;;;;;;5133998;27;20233;-64
2022/01/26 04:05:47;;;;;;;2.40;2.20;;;;;;;;;;5134498;27;20217;-63
2022/01/26 04:08:19;;;;;;;2.55;2.30;;;;;;;;;;5122535;27;20199;-63
2022/01/26 04:10:57;;;;;;;2.70;2.50;;;;;;;;;;5118658;28;20570;-64
2022/01/26 04:13:26;;;;;;;2.55;2.35;;;;;;;;;;5113913;28;20191;-63
2022/01/26 04:15:53;;;;;;;2.30;2.10;;;;;;;;;;5118302;28;20202;-65
2022/01/26 04:18:26;;;;;;;2.50;2.30;;;;;;;;;;5130427;27;20195;-63
2022/01/26 04:20:56;;;;;;;2.50;2.30;;;;;;;;;;5113935;28;20218;-64
2022/01/26 04:23:31;;;;;;;2.47;2.28;;;;;;;;;;5113351;28;20334;-64
2022/01/26 04:25:58;;;;;;;2.70;2.50;;;;;;;;;;5130920;28;20208;-63
2022/01/26 04:28:33;;;;;;;3.05;2.75;;;;;;;;;;5134314;27;20491;-64
2022/01/26 04:31:01;;;;;;;2.67;2.47;;;;;;;;;;5134168;27;20205;-64
2022/01/26 04:33:29;;;;;;;2.35;2.15;;;;;;;;;;5124450;27;20194;-64
2022/01/26 04:35:57;;;;;;;2.58;2.38;;;;;;;;;;5122960;27;20203;-63
2022/01/26 04:38:30;;;;;;;2.80;2.50;;;;;;;;;;5106973;28;20207;-64
2022/01/26 04:41:08;;;;;;;3.95;2.83;;;;;;;;;;5112441;28;20199;-63
2022/01/26 04:43:40;;;;;;;3.03;2.50;;;;;;;;;;5119894;28;20248;-63
2022/01/26 04:46:08;;;;;;;3.00;2.80;;;;;;;;;;5120287;28;20231;-63
2022/01/26 04:48:36;;;;;;;3.70;2.75;;;;;;;;;;5118178;28;20290;-63
2022/01/26 04:51:03;;;;;;;2.85;2.65;;;;;;;;;;5119667;28;20214;-64
2022/01/26 04:53:31;;;;;;;2.50;2.30;;;;;;;;;;5119586;28;20195;-64
2022/01/26 04:55:58;;;;;;;2.58;2.38;;;;;;;;;;5120006;28;20202;-63
2022/01/26 04:58:25;;;;;;;2.55;2.35;;;;;;;;;;5119765;27;20195;-64
2022/01/26 05:00:54;;;;;;;2.78;2.58;;;;;;;;;;5119792;28;20617;-64
2022/01/26 05:03:21;;;;;;;2.70;2.50;;;;;;;;;;5106928;28;20219;-63
2022/01/26 05:05:49;;;;;;;3.53;2.45;;;;;;;;;;5098930;28;20199;-63
2022/01/26 05:08:16;;;;;;;2.78;2.58;;;;;;;;;;5099026;28;20203;-63
2022/01/26 05:10:44;;;;;;;2.55;2.35;;;;;;;;;;5109585;28;20497;-63
2022/01/26 05:13:14;;;;;;;2.50;2.30;;;;;;;;;;5119354;28;20495;-63
2022/01/26 05:15:42;;;;;;;2.63;2.33;;;;;;;;;;5113550;28;20206;-64
2022/01/26 05:18:11;;;;;;;2.60;2.40;;;;;;;;;;5100011;28;20199;-64
2022/01/26 05:20:38;;;;;;;2.88;2.65;;;;;;;;;;5098438;28;20295;-63
2022/01/26 05:23:08;;;;;;;2.60;2.40;;;;;;;;;;5115529;28;20258;-63
2022/01/26 05:25:35;;;;;;;2.40;2.20;;;;;;;;;;5099248;28;20203;-63
2022/01/26 05:28:03;;;;;;;2.60;2.40;;;;;;;;;;5098801;28;20584;-63
2022/01/26 05:30:30;;;;;;;2.67;2.47;;;;;;;;;;5112248;28;20194;-63
2022/01/26 05:32:58;;;;;;;2.60;2.40;;;;;;;;;;5109015;28;20222;-63
2022/01/26 05:35:27;;;;;;;3.20;2.90;;;;;;;;;;5098774;28;20210;-63
2022/01/26 05:37:54;;;;;;;2.70;2.50;;;;;;;;;;5104655;28;20210;-63
2022/01/26 05:42:57;;;;;;;2.70;2.50;;;;;;;;;;5350105;22;20235;-61
2022/01/26 05:45:29;;;;;;;3.08;2.78;;;;;;;;;;5097658;27;20230;-61
2022/01/26 05:47:57;;;;;;;2.92;2.72;;;;;;;;;;5098997;27;20196;-61
2022/01/26 05:50:25;;;;;;;3.15;2.70;;;;;;;;;;5097942;28;20203;-61
2022/01/26 05:52:53;;;;;;;3.08;2.78;;;;;;;;;;5097100;28;20199;-61
2022/01/26 05:55:20;;;;;;;3.05;2.75;;;;;;;;;;5097786;28;20204;-61
2022/01/26 05:57:48;;;;;;;3.22;2.92;;;;;;;;;;5097296;28;20207;-61
2022/01/26 06:00:15;;;;;;;2.88;2.67;;;;;;;;;;5097448;28;20574;-61
2022/01/26 06:02:43;;;;;;;3.33;3.03;;;;;;;;;;5127158;27;20206;-61
2022/01/26 06:05:14;;;;;;;3.10;2.70;;;;;;;;;;5135323;27;20317;-61
2022/01/26 06:07:42;;;;;;;2.90;2.70;;;;;;;;;;5137212;27;20194;-61
2022/01/26 06:10:10;;;;;;;2.88;2.58;;;;;;;;;;5137181;27;20740;-61
2022/01/26 06:12:38;;;;;;;3.30;3.00;;;;;;;;;;5135495;27;20203;-62
2022/01/26 06:15:05;;;;;;;2.88;2.67;;;;;;;;;;5132850;27;20194;-62
2022/01/26 06:17:33;;;;;;;3.22;2.80;;;;;;;;;;5097772;27;20231;-62
2022/01/26 06:20:01;;;;;;;2.97;2.78;;;;;;;;;;5095379;28;20234;-62
2022/01/26 06:22:29;;;;;;;3.13;2.85;;;;;;;;;;5104930;27;20198;-62
2022/01/26 06:24:58;;;;;;;2.97;2.75;;;;;;;;;;5136430;27;20629;-62
2022/01/26 06:27:27;;;;;;;2.90;2.70;;;;;;;;;;5125866;27;20200;-62
2022/01/26 06:29:54;;;;;;;2.83;2.63;;;;;;;;;;5095440;28;20208;-62
2022/01/26 06:32:21;;;;;;;2.60;2.40;;;;;;;;;;5109462;27;20201;-62
2022/01/26 06:34:49;;;;;;;3.22;2.72;;;;;;;;;;5136723;27;20776;-61
2022/01/26 06:37:16;;;;;;;3.00;2.80;;;;;;;;;;5133121;27;20191;-62
2022/01/26 06:39:44;;;;;;;2.63;2.42;;;;;;;;;;5096201;28;20207;-62
2022/01/26 06:42:14;;;;;;;3.10;2.80;;;;;;;;;;5096903;28;20623;-62
2022/01/26 06:44:53;;;;;;;2.90;2.65;;;;;;;;;;5095933;28;20641;-61
2022/01/26 06:47:35;;;;;;;2.92;2.63;;;;;;;;;;5098093;27;20195;-62
2022/01/26 06:50:03;;;;;;;3.33;3.03;;;;;;;;;;5095727;28;20264;-61
2022/01/26 06:52:31;;;;;;;2.78;2.58;;;;;;;;;;5095864;28;20283;-62
2022/01/26 06:54:58;;;;;;;3.05;2.80;;;;;;;;;;5095764;28;20583;-61
2022/01/26 06:57:26;;;;;;;2.97;2.70;;;;;;;;;;5097973;27;20203;-62
2022/01/26 06:59:54;;;;;;;3.00;2.80;;;;;;;;;;5095416;28;20603;-62
2022/01/26 07:02:22;;;;;;;3.10;2.80;;;;;;;;;;5124845;27;20210;-62
2022/01/26 07:04:49;;;;;;;3.00;2.70;;;;;;;;;;5136691;27;20222;-61
2022/01/26 07:07:16;;;;;;;2.97;2.75;;;;;;;;;;5136171;27;20205;-61
2022/01/26 07:09:44;;;;;;;2.72;2.53;;;;;;;;;;5135931;27;20601;-61
2022/01/26 07:12:12;;;;;;;2.90;2.70;;;;;;;;;;5114582;27;20203;-62
2022/01/26 07:22:52;;;;;;;2.78;2.58;;;;;;;;;;5134495;28;20549;-62
2022/01/26 07:25:20;;;;;;;2.92;2.60;;;;;;;;;;5135228;28;20222;-62
2022/01/26 07:27:47;;;;;;;3.40;2.85;;;;;;;;;;5135667;28;20198;-62
2022/01/26 07:30:14;;;;;;;2.97;2.67;;;;;;;;;;5136986;28;20213;-61
2022/01/26 07:32:43;;;;;;;4.47;3.00;;;;;;;;;;5118471;28;20203;-62
2022/01/26 07:35:10;;;;;;;2.70;2.50;;;;;;;;;;5112336;28;20202;-61
2022/01/26 07:37:38;;;;;;;3.08;2.70;;;;;;;;;;5133538;28;20201;-62
2022/01/26 07:40:06;;;;;;;3.70;2.50;;;;;;;;;;5118131;28;20507;-61
2022/01/26 07:42:34;;;;;;;2.40;2.22;;;;;;;;;;5121935;28;20275;-61
2022/01/26 07:45:01;;;;;;;3.42;2.80;;;;;;;;;;5134847;28;20671;-62
2022/01/26 07:47:31;;;;;;;2.50;2.30;;;;;;;;;;5132510;28;20209;-61
2022/01/26 07:50:00;;;;;;;2.42;2.17;;;;;;;;;;5135558;28;20811;-61
2022/01/26 07:52:29;;;;;;;2.80;2.55;;;;;;;;;;5109672;28;20211;-62
2022/01/26 07:54:57;;;;;;;3.45;2.65;;;;;;;;;;5094008;28;20621;-63
2022/01/26 07:57:26;;;;;;;3.38;3.05;;;;;;;;;;5124007;28;20407;-62
2022/01/26 07:59:53;;;;;;;3.50;3.10;;;;;;;;;;5135050;28;20259;-63
2022/01/26 08:02:21;;;;;;;4.30;3.13;;;;;;;;;;5124180;28;20690;-62
2022/01/26 08:04:49;;;;;;;3.10;2.80;;;;;;;;;;5095525;28;20614;-63
2022/01/26 08:07:18;;;;;;;3.97;3.10;;;;;;;;;;5131483;28;20199;-62
2022/01/26 08:09:45;;;;;;;3.25;2.95;;;;;;;;;;5135682;27;20201;-63
2022/01/26 08:12:14;;;;;;;2.70;2.50;;;;;;;;;;5136980;27;20213;-62
2022/01/26 08:14:42;;;;;;;3.22;2.92;;;;;;;;;;5108136;27;20231;-62
2022/01/26 08:17:09;;;;;;;3.13;2.78;;;;;;;;;;5130137;27;20330;-63
2022/01/26 08:19:37;;;;;;;3.05;2.75;;;;;;;;;;5139729;27;20478;-63
2022/01/26 08:22:05;;;;;;;9.88;8.88;;;;;;;;;;5132020;27;20200;-62
2022/01/26 08:24:34;;;;;;;15.88;14.18;;;;;;;;;;5098595;28;20546;-62
2022/01/26 08:27:08;;;;;;;12.77;11.48;;;;;;;;;;5105251;27;20294;-63
2022/01/26 08:29:40;;;;;;;11.70;10.57;;;;;;;;;;5138663;27;20202;-63
2022/01/26 08:32:08;;;;;;;10.60;9.57;;;;;;;;;;5131213;27;20260;-63
2022/01/26 08:34:36;;;;;;;9.35;8.45;;;;;;;;;;5098126;28;20211;-63
2022/01/26 08:37:03;;;;;;;9.77;8.77;;;;;;;;;;5100131;27;20205;-63
2022/01/26 08:39:32;;;;;;;8.95;8.07;;;;;;;;;;5135370;27;20198;-63
2022/01/26 08:42:01;;;;;;;9.85;8.07;;;;;;;;;;5121266;27;20831;-63
2022/01/26 08:44:28;;;;;;;8.65;7.85;;;;;;;;;;5097757;27;20222;-63
2022/01/26 08:46:56;;;;;;;8.73;7.35;;;;;;;;;;5100647;27;20198;-63
2022/01/26 08:49:24;;;;;;;8.82;7.93;;;;;;;;;;5096971;27;20299;-63
2022/01/26 08:51:52;;;;;;;7.45;6.75;;;;;;;;;;5101499;27;20211;-62
2022/01/26 08:54:22;;;;;;;7.88;6.90;;;;;;;;;;5137830;27;20195;-63
2022/01/26 08:56:49;;;;;;;6.45;5.85;;;;;;;;;;5136809;27;20194;-63
2022/01/26 08:59:18;;;;;;;6.75;6.15;;;;;;;;;;5119806;27;20221;-62
2022/01/26 09:01:46;;;;;;;6.63;5.95;;;;;;;;;;5136729;27;20205;-62
2022/01/26 09:04:13;;;;;;;6.05;5.45;;;;;;;;;;5137116;27;20600;-62
2022/01/26 09:06:51;;;;;;;6.55;5.78;;;;;;;;;;5136583;27;20205;-62
2022/01/26 09:09:19;;;;;;;7.45;5.38;;;;;;;;;;5124075;27;20196;-62
2022/01/26 09:11:47;;;;;;;6.18;4.90;;;;;;;;;;5109647;27;20202;-62
2022/01/26 09:14:18;;;;;;;6.15;5.15;;;;;;;;;;5136989;27;20496;-63
2022/01/26 09:16:49;;;;;;;6.07;4.85;;;;;;;;;;5131782;27;20194;-62
2022/01/26 09:19:26;;;;;;;6.22;5.10;;;;;;;;;;5115603;27;20221;-62
2022/01/26 09:21:54;;;;;;;5.50;4.90;;;;;;;;;;5135311;27;20194;-62
2022/01/26 09:24:21;;;;;;;5.25;4.55;;;;;;;;;;5137110;27;20489;-62
2022/01/26 09:26:48;;;;;;;5.68;4.28;;;;;;;;;;5135998;27;20198;-62
2022/01/26 09:29:16;;;;;;;5.32;4.28;;;;;;;;;;5136158;27;20525;-63
2022/01/26 09:31:47;;;;;;;4.90;3.92;;;;;;;;;;5134855;27;20212;-63
2022/01/26 09:34:16;;;;;;;5.03;4.25;;;;;;;;;;5094707;28;20337;-63
2022/01/26 09:36:43;;;;;;;4.68;4.28;;;;;;;;;;5096238;27;20281;-62
2022/01/26 09:39:10;;;;;;;4.53;3.60;;;;;;;;;;5127014;27;20431;-63
2022/01/26 09:41:40;;;;;;;3.95;3.50;;;;;;;;;;5132665;27;20529;-63
2022/01/26 09:44:08;;;;;;;4.18;3.78;;;;;;;;;;5097644;27;20199;-63
2022/01/26 09:46:35;;;;;;;5.45;3.70;;;;;;;;;;5094318;28;20227;-62
2022/01/26 09:49:03;;;;;;;3.92;3.53;;;;;;;;;;5097243;27;20207;-62
2022/01/26 09:51:38;;;;;;;3.60;3.30;;;;;;;;;;5094897;28;20214;-63
2022/01/26 09:54:09;;;;;;;4.30;3.80;;;;;;;;;;5095465;28;20288;-63
2022/01/26 09:56:37;;;;;;;4.13;3.75;;;;;;;;;;5095104;28;20206;-63
2022/01/26 09:59:06;;;;;;;4.30;3.90;;;;;;;;;;5098288;27;20207;-63
2022/01/26 10:01:40;;;;;;;3.70;3.40;;;;;;;;;;5135562;27;20601;-63
2022/01/26 10:04:08;;;;;;;3.80;3.42;;;;;;;;;;5133157;27;20585;-63
2022/01/26 10:06:40;;;;;;;12.30;7.20;;;;;;;;;;5136313;27;20226;-63
2022/01/26 10:09:40;;;;;;;9.98;6.60;;;;;;;;;;5111850;27;20194;-63
2022/01/26 10:17:37;;;;;;;9.15;5.75;;;;;;;;;;5098359;27;20199;-62
2022/01/26 10:20:06;;;;;;;7.03;5.32;;;;;;;;;;5103098;27;20222;-62
2022/01/26 10:22:36;;;;;;;6.88;5.35;;;;;;;;;;5115145;28;20199;-63
2022/01/26 10:25:08;;;;;;;8.48;5.00;;;;;;;;;;5098321;27;20227;-62
2022/01/26 10:27:39;;;;;;;9.55;5.55;;;;;;;;;;5094260;28;20203;-63
2022/01/26 10:30:07;;;;;;;6.55;5.10;;;;;;;;;;5100888;28;20213;-62
2022/01/26 10:32:35;;;;;;;6.00;4.97;;;;;;;;;;5114994;27;20502;-63
2022/01/26 10:35:02;;;;;;;7.38;5.07;;;;;;;;;;5112255;28;20217;-62
2022/01/26 10:37:30;;;;;;;6.65;5.10;;;;;;;;;;5100675;28;20595;-63
2022/01/26 10:40:11;;;;;;;6.05;4.75;;;;;;;;;;5094914;28;20610;-62
2022/01/26 10:42:38;;;;;;;6.35;4.95;;;;;;;;;;5120615;27;20329;-63
2022/01/26 10:45:11;;;;;;;8.95;4.40;;;;;;;;;;5132859;27;20309;-64
2022/01/26 10:47:43;;;;;;;5.60;4.78;;;;;;;;;;5096832;27;20583;-63
2022/01/26 10:50:43;;;;;;;6.18;4.53;;;;;;;;;;5094656;27;20200;-63
2022/01/26 10:53:11;;;;;;;4.82;4.20;;;;;;;;;;5093664;28;20188;-63
2022/01/26 10:55:40;;;;;;;6.43;4.57;;;;;;;;;;5094055;28;20344;-63
2022/01/26 10:58:08;;;;;;;6.65;4.85;;;;;;;;;;5094939;28;20199;-63
2022/01/26 11:00:37;;;;;;;6.70;4.22;;;;;;;;;;5094759;28;20203;-64
2022/01/26 11:03:04;;;;;;;6.13;4.43;;;;;;;;;;5105965;27;20469;-63
2022/01/26 11:05:31;;;;;;;5.32;4.10;;;;;;;;;;5134475;27;20229;-64
2022/01/26 11:08:00;;;;;;;6.10;4.50;;;;;;;;;;5135379;27;20202;-64
2022/01/26 11:10:32;;;;;;;5.70;4.53;;;;;;;;;;5102132;27;20197;-63
2022/01/26 11:13:01;;;;;;;6.72;4.03;;;;;;;;;;5134853;27;20502;-64
2022/01/26 11:15:28;;;;;;;5.43;4.38;;;;;;;;;;5094537;28;20265;-64
2022/01/26 11:18:06;;;;;;;7.45;4.60;;;;;;;;;;5096618;27;20203;-63
2022/01/26 11:20:34;;;;;;;5.22;4.10;;;;;;;;;;5124631;27;20777;-63
2022/01/26 11:23:03;;;;;;;5.95;4.90;;;;;;;;;;5134004;27;20213;-63
2022/01/26 11:25:32;;;;;;;8.32;5.63;;;;;;;;;;5093688;28;20398;-64
2022/01/26 11:28:01;;;;;;;8.57;6.80;;;;;;;;;;5094274;28;20203;-63
2022/01/26 11:30:29;;;;;;;9.45;6.20;;;;;;;;;;5093819;28;20214;-64
2022/01/26 11:32:58;;;;;;;8.82;6.32;;;;;;;;;;5100684;28;20297;-63
2022/01/26 11:35:27;;;;;;;8.23;5.70;;;;;;;;;;5093446;28;20208;-63
2022/01/26 11:38:08;;;;;;;9.30;6.43;;;;;;;;;;5130933;28;20202;-63
2022/01/26 11:46:24;;;;;;;7.85;5.75;;;;;;;;;;5104187;27;20248;-63
2022/01/26 11:49:01;;;;;;;6.97;5.55;;;;;;;;;;5108018;27;20728;-63
2022/01/26 11:51:39;;;;;;;5.88;5.05;;;;;;;;;;5135505;27;20581;-63
2022/01/26 11:54:14;;;;;;;8.20;5.93;;;;;;;;;;5122817;27;20200;-63
2022/01/26 11:56:41;;;;;;;6.78;5.97;;;;;;;;;;5137861;27;20201;-63
2022/01/26 11:59:19;;;;;;;6.45;5.53;;;;;;;;;;5124138;27;20188;-63
2022/01/26 12:01:55;;;;;;;7.28;5.05;;;;;;;;;;5112126;28;20194;-63
2022/01/26 12:04:24;;;;;;;6.13;5.50;;;;;;;;;;5118478;28;20214;-63
2022/01/26 12:06:58;;;;;;;5.90;5.20;;;;;;;;;;5118123;28;20758;-63
2022/01/26 12:09:26;;;;;;;7.00;5.50;;;;;;;;;;5118206;28;20237;-64
2022/01/26 12:11:55;;;;;;;6.18;5.57;;;;;;;;;;5118686;28;20490;-64
2022/01/26 12:14:24;;;;;;;9.25;6.70;;;;;;;;;;5118191;28;20194;-64
2022/01/26 12:16:55;;;;;;;7.80;6.25;;;;;;;;;;5100835;28;20196;-64
2022/01/26 12:19:32;;;;;;;6.60;6.00;;;;;;;;;;5099360;27;20579;-63
2022/01/26 12:36:21;;;;;;;6.00;5.22;;;;;;;;;;5035679;28;20263;-63
2022/01/26 12:38:58;;;;;;;6.05;5.28;;;;;;;;;;5099624;27;20281;-64
2022/01/26 12:41:31;;;;;;;6.57;5.25;;;;;;;;;;5096663;28;20226;-63
2022/01/26 12:43:59;;;;;;;5.35;4.80;;;;;;;;;;5100101;27;20196;-63
2022/01/26 12:46:29;;;;;;;6.63;5.10;;;;;;;;;;5121719;27;20218;-63
2022/01/26 12:48:57;;;;;;;5.68;5.00;;;;;;;;;;5134613;27;20202;-63
2022/01/26 12:51:26;;;;;;;5.53;4.88;;;;;;;;;;5111251;27;20647;-63
2022/01/26 12:53:53;;;;;;;6.38;5.30;;;;;;;;;;5096060;27;20202;-63
2022/01/26 12:56:21;;;;;;;5.47;4.68;;;;;;;;;;5095164;27;20203;-64
2022/01/26 12:58:48;;;;;;;5.32;4.82;;;;;;;;;;5095932;27;20211;-63
2022/01/26 13:01:18;;;;;;;6.57;4.80;;;;;;;;;;5096921;28;20491;-64
2022/01/26 13:03:48;;;;;;;4.78;4.28;;;;;;;;;;5095583;27;20595;-63
2022/01/26 13:06:21;;;;;;;5.82;4.78;;;;;;;;;;5096230;28;20231;-63
2022/01/26 13:08:50;;;;;;;5.22;4.60;;;;;;;;;;5118994;27;20206;-64
2022/01/26 13:11:23;;;;;;;4.90;4.38;;;;;;;;;;5135959;27;20203;-63
2022/01/26 13:13:51;;;;;;;6.60;4.40;;;;;;;;;;5103891;27;20197;-63
2022/01/26 13:16:22;;;;;;;4.95;4.00;;;;;;;;;;5133430;27;20491;-64
2022/01/26 13:19:11;;;;;;;6.70;4.30;;;;;;;;;;5136061;27;20202;-63
2022/01/26 13:21:59;;;;;;;4.93;4.35;;;;;;;;;;5132144;27;20206;-64
2022/01/26 13:27:16;;;;;;;5.68;4.25;;;;;;;;;;5092058;27;20216;-63
2022/01/26 13:29:57;;;;;;;4.75;4.18;;;;;;;;;;5095469;27;20294;-63
2022/01/26 13:33:01;;;;;;;4.38;3.55;;;;;;;;;;5094154;28;20234;-63
2022/01/26 13:38:34;;;;;;;5.03;4.20;;;;;;;;;;5090479;28;20203;-63
2022/01/26 13:41:17;;;;;;;6.00;3.88;;;;;;;;;;5120579;27;20194;-64
2022/01/26 13:49:30;;;;;;;4.10;3.70;;;;;;;;;;5115702;27;20193;-63
2022/01/26 13:55:19;;;;;;;4.18;3.78;;;;;;;;;;5096505;27;20619;-63
2022/01/26 13:58:02;;;;;;;3.78;3.42;;;;;;;;;;5136312;27;20234;-63
2022/01/26 14:00:36;;;;;;;4.03;3.63;;;;;;;;;;5135087;27;20616;-63
2022/01/26 14:03:06;;;;;;;4.13;3.72;;;;;;;;;;5134473;27;20194;-64
2022/01/26 14:05:33;;;;;;;5.03;3.67;;;;;;;;;;5135639;27;20213;-64
2022/01/26 14:08:02;;;;;;;4.72;3.78;;;;;;;;;;5125033;27;20196;-63
2022/01/26 14:10:29;;;;;;;4.38;3.78;;;;;;;;;;5094747;27;20199;-64
2022/01/26 14:12:57;;;;;;;4.00;3.60;;;;;;;;;;5094404;27;20214;-64
2022/01/26 14:15:35;;;;;;;3.67;3.28;;;;;;;;;;5095462;28;20204;-63
2022/01/26 14:18:10;;;;;;;4.75;3.33;;;;;;;;;;5104700;27;20192;-63
2022/01/26 14:20:46;;;;;;;3.78;3.47;;;;;;;;;;5134985;27;20202;-63
2022/01/26 14:23:20;;;;;;;4.00;3.40;;;;;;;;;;5128171;27;20586;-63
2022/01/26 14:25:51;;;;;;;3.50;3.20;;;;;;;;;;5094987;27;20260;-63
2022/01/26 14:28:20;;;;;;;3.65;3.35;;;;;;;;;;5094388;28;20195;-63
2022/01/26 14:30:56;;;;;;;3.50;3.20;;;;;;;;;;5100081;28;20484;-63
2022/01/26 14:33:57;;;;;;;3.70;3.40;;;;;;;;;;5115559;27;20201;-63
2022/01/26 14:56:00;;;;;;;59.22;53.30;;;;;;;;;;5094344;28;20565;-63
2022/01/26 15:08:43;;;;;;;50.40;45.42;;;;;;;;;;5133995;27;20273;-63
2022/01/26 15:10:45;;;;;;;41.80;37.70;;;;;;;;;;5094192;28;20594;-63
2022/01/26 15:35:26;;;;;;;46.05;41.85;;;;;;;;;;5128423;28;20213;-63
2022/01/26 15:40:56;;;;;;;42.20;38.33;;;;;;;;;;5093748;28;20233;-63
2022/01/26 15:49:25;;;;;;;36.63;33.35;;;;;;;;;;5123021;28;20207;-63
2022/01/26 15:52:08;;;;;;;34.40;31.20;;;;;;;;;;5093967;28;20199;-63
2022/01/26 15:57:53;;;;;;;31.42;28.63;;;;;;;;;;5134028;28;20339;-63
2022/01/26 16:06:09;;;;;;;26.55;24.25;;;;;;;;;;5093032;28;20203;-63
2022/01/26 16:20:07;;;;;;;20.70;18.90;;;;;;;;;;5091851;28;20214;-64
2022/01/26 16:44:18;;;;;;;15.32;13.82;;;;;;;;;;5097171;28;20203;-63
2022/01/26 17:43:39;;;;;;;8.95;8.15;;;;;;;;;;5136344;27;20265;-63
2022/01/26 18:16:36;;;;;;;6.88;6.28;;;;;;;;;;5127748;27;20697;-63
2022/01/26 18:32:55;;;;;;;16.73;15.13;;;;;;;;;;5133034;27;20189;-63
2022/01/26 18:49:17;;;;;;;14.23;12.82;;;;;;;;;;5112948;27;20298;-63
2022/01/26 18:51:45;;;;;;;13.65;12.25;;;;;;;;;;5096370;28;20199;-63
2022/01/26 18:54:13;;;;;;;13.05;11.77;;;;;;;;;;5096340;28;20258;-63
2022/01/26 18:56:41;;;;;;;12.80;11.52;;;;;;;;;;5096261;28;20196;-63
2022/01/26 18:59:09;;;;;;;13.00;11.73;;;;;;;;;;5115918;27;20222;-64
2022/01/26 19:01:37;;;;;;;12.32;11.13;;;;;;;;;;5135853;27;20199;-63
2022/01/26 19:04:04;;;;;;;13.43;12.02;;;;;;;;;;5135829;27;20198;-63
2022/01/26 19:06:33;;;;;;;16.33;14.70;;;;;;;;;;5136389;27;20221;-63
2022/01/26 19:09:00;;;;;;;15.10;13.60;;;;;;;;;;5118643;27;20192;-63
2022/01/26 19:11:28;;;;;;;13.93;12.52;;;;;;;;;;5122345;27;20711;-63
2022/01/26 19:13:55;;;;;;;13.25;11.93;;;;;;;;;;5138045;27;20198;-63
2022/01/26 19:16:32;;;;;;;13.75;12.43;;;;;;;;;;5112660;27;20199;-63
2022/01/26 19:19:08;;;;;;;13.95;12.55;;;;;;;;;;5099176;28;20239;-63
2022/01/26 19:21:57;;;;;;;12.48;11.20;;;;;;;;;;5095624;28;20275;-63
2022/01/26 19:24:43;;;;;;;11.88;10.68;;;;;;;;;;5096278;28;20204;-63
2022/01/26 19:27:19;;;;;;;12.20;11.00;;;;;;;;;;5096785;28;20255;-63
2022/01/26 19:30:03;;;;;;;11.50;10.30;;;;;;;;;;5125759;28;20202;-63
2022/01/26 19:46:29;;;;;;;9.55;8.65;;;;;;;;;;5096484;28;20627;-64
2022/01/26 19:51:52;;;;;;;9.65;8.43;;;;;;;;;;5124881;28;20642;-63
2022/01/26 19:54:21;;;;;;;9.00;8.10;;;;;;;;;;5136054;28;20205;-63
2022/01/26 19:56:49;;;;;;;8.27;7.47;;;;;;;;;;5136045;28;20214;-63
2022/01/26 19:59:16;;;;;;;7.82;7.13;;;;;;;;;;5115365;28;20230;-63
2022/01/26 20:01:44;;;;;;;7.68;6.97;;;;;;;;;;5096129;28;20618;-63
2022/01/26 20:04:11;;;;;;;7.30;6.60;;;;;;;;;;5131695;28;20213;-63
2022/01/26 20:06:39;;;;;;;7.22;6.53;;;;;;;;;;5137537;27;20218;-62
2022/01/26 20:09:14;;;;;;;7.80;7.00;;;;;;;;;;5115782;27;20324;-63
2022/01/26 20:11:52;;;;;;;7.47;6.70;;;;;;;;;;5128256;27;20280;-63
2022/01/26 20:14:24;;;;;;;7.00;6.30;;;;;;;;;;5122613;27;20199;-63
2022/01/26 20:16:51;;;;;;;6.97;6.28;;;;;;;;;;5139957;27;20198;-63
2022/01/26 20:19:19;;;;;;;6.75;6.10;;;;;;;;;;5115695;27;20200;-63
2022/01/26 20:21:46;;;;;;;6.75;6.05;;;;;;;;;;5099243;27;20289;-63
2022/01/26 20:24:16;;;;;;;7.05;6.30;;;;;;;;;;5100061;27;20208;-63
2022/01/26 20:26:44;;;;;;;7.32;6.32;;;;;;;;;;5099706;27;20597;-64
2022/01/26 20:29:12;;;;;;;7.18;6.47;;;;;;;;;;5117116;27;20376;-63
2022/01/26 20:31:39;;;;;;;6.25;5.55;;;;;;;;;;5140340;27;20210;-63
2022/01/26 20:34:07;;;;;;;6.35;5.75;;;;;;;;;;5125160;27;20204;-63
2022/01/26 20:36:34;;;;;;;6.30;5.70;;;;;;;;;;5106357;28;20298;-63
2022/01/26 20:39:03;;;;;;;6.43;5.47;;;;;;;;;;5125861;27;20596;-63
2022/01/26 20:41:31;;;;;;;5.65;5.15;;;;;;;;;;5139293;27;20234;-63
2022/01/26 20:43:59;;;;;;;6.55;5.72;;;;;;;;;;5112971;27;20200;-64
2022/01/26 20:46:27;;;;;;;6.03;5.43;;;;;;;;;;5099160;28;20204;-63
2022/01/26 20:48:54;;;;;;;6.50;5.90;;;;;;;;;;5110882;27;20214;-63